Terminal Aerodrome Forecast
Issued by NWS

Home | Current Version | Previous Version | Text Only | Print | Product List | Glossary On
Versions: 1 2 3 4 5 6 7 8 9 10 11 12 13 14 15 16 17 18 19 20 21 22 23 24 25
000
FTUS45 KBOU 271122
TAFAPA
TAF
KAPA 271122Z 2712/2812 32008KT P6SM SCT060 BKN080 OVC120
     FM271500 34010KT P6SM SCT050 BKN070
      TEMPO 2716/2720 -SHRA SCT030 OVC050
     FM272100 35012G20KT P6SM SCT070 BKN100
     FM280100 05010KT P6SM SCT060 BKN100
     FM280500 23010KT P6SM SCT100 BKN140=

USA.gov is the U.S. government's official web portal to all federal, state and local government web resources and services.